Time;durP1;ratioP1;P1;durP2;ratioP2;P2;SDS_P1;SDS_P2;PMS_P1;PMS_P2;Temp;Humidity;BMP_temperature;BMP_pressure;BME280_temperature;BME280_humidity;BME280_pressure;Samples;Min_cycle;Max_cycle;Signal;HPM_P1;HPM_P2
2023/08/08 00:00:15;;;;;;;763.78;516.25;;;;;;;;;;5045600;28;20906;-74
2023/08/08 00:02:43;;;;;;;762.83;511.05;;;;;;;;;;5050569;28;20428;-74
2023/08/08 00:05:10;;;;;;;759.53;508.33;;;;;;;;;;5066132;28;20518;-74
2023/08/08 00:07:37;;;;;;;762.00;518.38;;;;;;;;;;5058255;28;20433;-74
2023/08/08 00:10:05;;;;;;;758.03;505.05;;;;;;;;;;5064627;28;20425;-73
2023/08/08 00:12:38;;;;;;;760.65;504.45;;;;;;;;;;5054592;28;20431;-76
2023/08/08 00:15:08;;;;;;;762.25;506.45;;;;;;;;;;5055635;28;20449;-66
2023/08/08 00:17:35;;;;;;;764.03;512.97;;;;;;;;;;5045001;28;20789;-66
2023/08/08 00:20:03;;;;;;;763.45;513.22;;;;;;;;;;5044476;28;20450;-68
2023/08/08 00:22:30;;;;;;;766.00;525.17;;;;;;;;;;5038328;28;20466;-68
2023/08/08 00:24:59;;;;;;;778.65;488.35;;;;;;;;;;5048943;28;20432;-68
2023/08/08 00:27:26;;;;;;;774.70;547.30;;;;;;;;;;5049966;28;21187;-68
2023/08/08 00:29:57;;;;;;;768.42;504.73;;;;;;;;;;5060983;28;20419;-69
2023/08/08 00:32:24;;;;;;;772.83;513.75;;;;;;;;;;5068102;28;20466;-68
2023/08/08 00:34:51;;;;;;;763.95;509.55;;;;;;;;;;5051022;28;20434;-68
2023/08/08 00:37:18;;;;;;;761.88;503.52;;;;;;;;;;5047961;28;20440;-66
2023/08/08 00:39:46;;;;;;;768.67;507.00;;;;;;;;;;5046923;28;20455;-65
2023/08/08 00:42:13;;;;;;;764.83;516.97;;;;;;;;;;5051089;28;20460;-68
2023/08/08 00:44:43;;;;;;;760.75;492.42;;;;;;;;;;5056270;28;20882;-66
2023/08/08 00:47:11;;;;;;;759.00;508.85;;;;;;;;;;5041067;28;20431;-66
2023/08/08 00:49:39;;;;;;;763.78;489.63;;;;;;;;;;5042443;28;20520;-66
2023/08/08 00:52:07;;;;;;;771.88;503.15;;;;;;;;;;5046175;28;21043;-66
2023/08/08 00:54:36;;;;;;;777.20;537.07;;;;;;;;;;5050453;28;20425;-66
2023/08/08 00:57:03;;;;;;;900.95;564.72;;;;;;;;;;5038313;28;22337;-66
2023/08/08 00:59:36;;;;;;;643.10;572.58;;;;;;;;;;5031994;28;20893;-66
2023/08/08 01:02:03;;;;;;;862.85;534.03;;;;;;;;;;5039208;28;20940;-66
2023/08/08 01:04:33;;;;;;;881.23;544.70;;;;;;;;;;5065111;28;20481;-66
2023/08/08 01:07:22;;;;;;;490.98;444.70;;;;;;;;;;5043959;28;20436;-66
2023/08/08 01:09:55;;;;;;;700.85;611.00;;;;;;;;;;5033818;28;21094;-66
2023/08/08 01:12:24;;;;;;;357.30;326.13;;;;;;;;;;5054169;28;20440;-65
2023/08/08 01:14:51;;;;;;;7.68;7.35;;;;;;;;;;5047219;28;20431;-65
2023/08/08 01:17:22;;;;;;;54.78;51.55;;;;;;;;;;5063482;28;21001;-65
2023/08/08 01:19:50;;;;;;;393.13;359.33;;;;;;;;;;5051449;28;20467;-65
2023/08/08 01:22:25;;;;;;;700.58;630.85;;;;;;;;;;5037347;28;20961;-66
2023/08/08 01:24:53;;;;;;;849.30;626.13;;;;;;;;;;5070063;28;20463;-66
2023/08/08 01:27:21;;;;;;;722.95;631.08;;;;;;;;;;5060263;28;20431;-65
2023/08/08 01:29:51;;;;;;;717.90;642.87;;;;;;;;;;5048614;28;20437;-66
2023/08/08 01:32:20;;;;;;;669.83;610.50;;;;;;;;;;5032119;28;20580;-66
2023/08/08 01:34:48;;;;;;;708.65;630.70;;;;;;;;;;5048256;28;20431;-66
2023/08/08 01:37:20;;;;;;;889.63;619.08;;;;;;;;;;5048867;28;20460;-67
2023/08/08 01:39:48;;;;;;;780.80;639.70;;;;;;;;;;5053279;28;20461;-67
2023/08/08 01:42:21;;;;;;;796.80;630.25;;;;;;;;;;5049275;28;20442;-67
2023/08/08 01:44:50;;;;;;;598.43;534.47;;;;;;;;;;5052606;28;20427;-67
2023/08/08 01:47:19;;;;;;;800.83;636.70;;;;;;;;;;5042828;28;20824;-67
2023/08/08 01:49:53;;;;;;;932.42;611.25;;;;;;;;;;5065617;28;20435;-67
2023/08/08 01:52:20;;;;;;;448.20;408.58;;;;;;;;;;5056072;28;20459;-67
2023/08/08 01:54:47;;;;;;;819.80;639.63;;;;;;;;;;5061051;28;20435;-67
2023/08/08 01:57:14;;;;;;;693.45;628.33;;;;;;;;;;5050909;28;20425;-67
2023/08/08 01:59:41;;;;;;;636.40;571.28;;;;;;;;;;5063942;28;20516;-67
2023/08/08 02:02:08;;;;;;;554.92;504.63;;;;;;;;;;5050686;28;20433;-67
2023/08/08 02:04:36;;;;;;;594.90;540.95;;;;;;;;;;5049966;28;22532;-67
2023/08/08 02:07:03;;;;;;;946.55;627.83;;;;;;;;;;5050896;28;20429;-67
2023/08/08 02:09:32;;;;;;;897.35;631.78;;;;;;;;;;5049740;28;20430;-67
2023/08/08 02:11:59;;;;;;;841.03;625.33;;;;;;;;;;5064777;28;20543;-67
2023/08/08 02:14:27;;;;;;;820.38;626.30;;;;;;;;;;5057746;28;20792;-67
2023/08/08 02:16:54;;;;;;;913.95;580.05;;;;;;;;;;5042113;28;20516;-67
2023/08/08 02:19:21;;;;;;;914.42;594.47;;;;;;;;;;5046075;28;20519;-67
2023/08/08 02:21:48;;;;;;;935.85;604.72;;;;;;;;;;5048034;28;20433;-67
2023/08/08 02:24:16;;;;;;;900.17;562.08;;;;;;;;;;5042754;28;20480;-67
2023/08/08 02:26:43;;;;;;;881.00;544.25;;;;;;;;;;5049942;28;20512;-67
2023/08/08 02:29:10;;;;;;;885.30;543.53;;;;;;;;;;5046816;28;20443;-67
2023/08/08 02:31:39;;;;;;;876.00;537.28;;;;;;;;;;5040785;28;20425;-66
2023/08/08 02:34:06;;;;;;;875.35;535.97;;;;;;;;;;5054716;28;20433;-67
2023/08/08 02:36:36;;;;;;;889.42;541.67;;;;;;;;;;5063622;28;20435;-67
2023/08/08 02:39:03;;;;;;;897.17;552.00;;;;;;;;;;5049558;28;20566;-66
2023/08/08 02:41:30;;;;;;;889.35;541.35;;;;;;;;;;5046993;28;20427;-67
2023/08/08 02:43:57;;;;;;;871.83;527.30;;;;;;;;;;5043254;28;20456;-67
2023/08/08 02:46:25;;;;;;;897.90;546.78;;;;;;;;;;5057712;28;20429;-67
2023/08/08 02:48:52;;;;;;;808.03;491.67;;;;;;;;;;5054967;28;20436;-66
2023/08/08 02:51:19;;;;;;;775.50;548.38;;;;;;;;;;5039439;28;20516;-67
2023/08/08 02:53:46;;;;;;;114.30;105.17;;;;;;;;;;5050684;28;20892;-66
2023/08/08 02:56:13;;;;;;;83.90;76.07;;;;;;;;;;5059932;28;20485;-66
2023/08/08 02:58:41;;;;;;;68.18;62.92;;;;;;;;;;5050412;28;20435;-66
2023/08/08 03:01:08;;;;;;;212.02;192.43;;;;;;;;;;5051931;28;21093;-66
2023/08/08 03:03:35;;;;;;;865.53;549.00;;;;;;;;;;5056777;28;20484;-66
2023/08/08 03:06:03;;;;;;;806.33;538.95;;;;;;;;;;5057082;28;20883;-67
2023/08/08 03:08:31;;;;;;;851.67;526.65;;;;;;;;;;5064727;28;20488;-66
2023/08/08 03:10:58;;;;;;;859.78;521.63;;;;;;;;;;5044451;28;20435;-66
2023/08/08 03:13:25;;;;;;;705.42;518.30;;;;;;;;;;5068865;28;20602;-66
2023/08/08 03:15:56;;;;;;;518.42;460.08;;;;;;;;;;5052631;28;20432;-67
2023/08/08 03:18:25;;;;;;;847.97;507.80;;;;;;;;;;5068680;28;21172;-66
2023/08/08 03:20:53;;;;;;;613.53;499.60;;;;;;;;;;5068902;28;20492;-67
2023/08/08 03:23:23;;;;;;;584.88;459.67;;;;;;;;;;5069103;28;20793;-66
2023/08/08 03:25:50;;;;;;;63.58;58.90;;;;;;;;;;5052683;28;20942;-66
2023/08/08 03:28:17;;;;;;;574.70;469.88;;;;;;;;;;5045342;28;20455;-66
2023/08/08 03:30:44;;;;;;;113.22;104.55;;;;;;;;;;5036213;28;20429;-66
2023/08/08 03:33:12;;;;;;;500.40;448.87;;;;;;;;;;5064387;28;20468;-66
2023/08/08 03:35:39;;;;;;;319.33;287.58;;;;;;;;;;5065342;28;20790;-66
2023/08/08 03:38:07;;;;;;;30.00;28.27;;;;;;;;;;5035426;28;20779;-67
2023/08/08 03:40:35;;;;;;;422.77;379.75;;;;;;;;;;5059735;28;20427;-67
2023/08/08 03:43:02;;;;;;;468.23;416.98;;;;;;;;;;5068954;28;20435;-67
2023/08/08 03:45:29;;;;;;;183.32;163.98;;;;;;;;;;5064513;28;20515;-67
2023/08/08 03:47:56;;;;;;;695.67;491.40;;;;;;;;;;5058152;28;20455;-65
2023/08/08 03:50:23;;;;;;;806.53;466.25;;;;;;;;;;5047114;28;20499;-66
2023/08/08 03:52:51;;;;;;;796.15;464.48;;;;;;;;;;5059687;28;20511;-66
2023/08/08 03:55:18;;;;;;;625.67;456.35;;;;;;;;;;5044314;28;21231;-66
2023/08/08 03:57:45;;;;;;;774.43;464.63;;;;;;;;;;5046906;28;20465;-66
2023/08/08 04:00:12;;;;;;;802.17;455.50;;;;;;;;;;5051467;28;20439;-66
2023/08/08 04:02:39;;;;;;;778.85;442.55;;;;;;;;;;5060636;28;20886;-66
2023/08/08 04:05:07;;;;;;;779.33;449.70;;;;;;;;;;5066873;28;20483;-66
2023/08/08 04:07:34;;;;;;;767.65;415.80;;;;;;;;;;5062411;28;20898;-66
2023/08/08 04:10:01;;;;;;;736.58;389.17;;;;;;;;;;5048013;28;20423;-66
2023/08/08 04:12:32;;;;;;;768.78;409.52;;;;;;;;;;5063569;28;20463;-66
2023/08/08 04:15:00;;;;;;;738.88;420.15;;;;;;;;;;5068707;28;20916;-66
2023/08/08 04:17:27;;;;;;;788.20;421.63;;;;;;;;;;5052359;28;20422;-66
2023/08/08 04:19:54;;;;;;;782.45;431.70;;;;;;;;;;5049579;28;20945;-66
2023/08/08 04:22:21;;;;;;;759.90;401.15;;;;;;;;;;5045391;28;20974;-66
2023/08/08 04:24:51;;;;;;;746.33;395.10;;;;;;;;;;5038072;28;20487;-66
2023/08/08 04:27:21;;;;;;;747.45;400.30;;;;;;;;;;5058592;28;20431;-66
2023/08/08 04:29:54;;;;;;;728.05;379.33;;;;;;;;;;5062581;28;20493;-66
2023/08/08 04:32:24;;;;;;;668.78;390.17;;;;;;;;;;5054991;28;20425;-66
2023/08/08 04:34:54;;;;;;;619.03;401.10;;;;;;;;;;5046936;28;20425;-66
2023/08/08 04:37:21;;;;;;;745.38;396.38;;;;;;;;;;5057855;28;20753;-66
2023/08/08 04:39:48;;;;;;;744.00;398.40;;;;;;;;;;5056379;28;20445;-66
2023/08/08 04:42:15;;;;;;;681.35;408.92;;;;;;;;;;5056433;28;20431;-66
2023/08/08 04:44:50;;;;;;;730.00;379.67;;;;;;;;;;5059156;28;20905;-66
2023/08/08 04:47:17;;;;;;;706.88;358.83;;;;;;;;;;5053005;28;20427;-66
2023/08/08 04:49:44;;;;;;;716.50;368.63;;;;;;;;;;5054598;28;20429;-66
2023/08/08 04:52:19;;;;;;;748.00;390.95;;;;;;;;;;5056069;28;20446;-66
2023/08/08 04:54:46;;;;;;;743.00;391.70;;;;;;;;;;5043650;28;20502;-66
2023/08/08 04:57:13;;;;;;;750.80;410.23;;;;;;;;;;5063344;28;20505;-66
2023/08/08 04:59:42;;;;;;;740.35;393.80;;;;;;;;;;5062325;28;20433;-66
2023/08/08 05:02:16;;;;;;;755.03;410.77;;;;;;;;;;5062239;28;20427;-66
2023/08/08 05:04:43;;;;;;;749.30;395.02;;;;;;;;;;5047294;28;20435;-66
2023/08/08 05:07:13;;;;;;;756.47;400.33;;;;;;;;;;5062900;28;20451;-66
2023/08/08 05:09:40;;;;;;;761.57;413.17;;;;;;;;;;5064243;28;20523;-66
2023/08/08 05:12:11;;;;;;;755.78;410.23;;;;;;;;;;5051939;28;20483;-66
2023/08/08 05:14:38;;;;;;;762.37;411.30;;;;;;;;;;5051697;28;21004;-66
2023/08/08 05:17:05;;;;;;;756.88;413.58;;;;;;;;;;5043875;28;20497;-66
2023/08/08 05:19:32;;;;;;;718.83;399.83;;;;;;;;;;5057113;28;20775;-66
2023/08/08 05:22:00;;;;;;;791.42;441.90;;;;;;;;;;5069655;28;20431;-66
2023/08/08 05:24:28;;;;;;;750.17;412.88;;;;;;;;;;5042702;28;20430;-66
2023/08/08 05:26:55;;;;;;;754.63;429.45;;;;;;;;;;5066742;28;20506;-67
2023/08/08 05:29:25;;;;;;;817.85;484.02;;;;;;;;;;5061737;28;20493;-67
2023/08/08 05:31:52;;;;;;;880.63;553.00;;;;;;;;;;5069975;28;20477;-67
2023/08/08 05:34:19;;;;;;;914.78;624.03;;;;;;;;;;5055756;28;20980;-66
2023/08/08 05:36:47;;;;;;;340.38;311.98;;;;;;;;;;5063002;28;20885;-67
2023/08/08 05:39:17;;;;;;;812.10;730.67;;;;;;;;;;5042717;28;20532;-67
2023/08/08 05:41:45;;;;;;;787.40;697.08;;;;;;;;;;5064533;28;20423;-69
2023/08/08 05:44:14;;;;;;;758.47;693.03;;;;;;;;;;5062588;28;20774;-67
2023/08/08 05:46:46;;;;;;;64.45;59.30;;;;;;;;;;5051459;28;20423;-67
2023/08/08 05:49:16;;;;;;;939.28;786.88;;;;;;;;;;5051282;28;20433;-67
2023/08/08 05:51:43;;;;;;;893.25;802.53;;;;;;;;;;5051072;28;20425;-67
2023/08/08 05:54:13;;;;;;;781.85;714.30;;;;;;;;;;5065732;28;20454;-67
2023/08/08 05:56:41;;;;;;;944.08;860.80;;;;;;;;;;5050774;28;20477;-67
2023/08/08 05:59:08;;;;;;;959.60;862.25;;;;;;;;;;5060843;28;20486;-68
2023/08/08 06:01:35;;;;;;;853.38;781.55;;;;;;;;;;5046973;28;20490;-67
2023/08/08 06:04:03;;;;;;;893.83;816.75;;;;;;;;;;5067379;28;20802;-67
2023/08/08 06:06:30;;;;;;;672.53;616.75;;;;;;;;;;5070898;28;20446;-67
2023/08/08 06:09:03;;;;;;;549.80;502.67;;;;;;;;;;5069718;28;20427;-67
2023/08/08 06:11:33;;;;;;;847.80;765.60;;;;;;;;;;5063893;28;20973;-67
2023/08/08 06:14:04;;;;;;;1017.15;914.63;;;;;;;;;;5068447;28;20427;-68
2023/08/08 06:16:31;;;;;;;1001.40;891.22;;;;;;;;;;5068960;28;20506;-67
2023/08/08 06:18:58;;;;;;;1016.85;821.45;;;;;;;;;;5061596;28;20525;-67
2023/08/08 06:21:25;;;;;;;25.83;23.98;;;;;;;;;;5070428;28;20432;-68
2023/08/08 06:23:54;;;;;;;0.90;0.90;;;;;;;;;;5061529;28;20472;-67
2023/08/08 06:26:22;;;;;;;17.13;15.52;;;;;;;;;;5070633;28;20427;-68
2023/08/08 06:28:51;;;;;;;2.03;0.90;;;;;;;;;;5065654;28;20423;-68
2023/08/08 06:31:19;;;;;;;1.50;1.30;;;;;;;;;;5037256;28;20437;-68
2023/08/08 06:33:46;;;;;;;1.60;1.00;;;;;;;;;;5042716;28;20427;-68
2023/08/08 06:36:13;;;;;;;2.15;1.67;;;;;;;;;;5044808;28;21028;-67
2023/08/08 06:38:41;;;;;;;1.38;0.93;;;;;;;;;;5069765;28;20431;-68
2023/08/08 06:41:13;;;;;;;485.13;440.98;;;;;;;;;;5048903;28;20440;-67
2023/08/08 06:43:40;;;;;;;893.87;809.23;;;;;;;;;;5055900;28;20512;-69
2023/08/08 06:46:13;;;;;;;118.47;108.43;;;;;;;;;;5061351;28;20423;-68
2023/08/08 06:48:44;;;;;;;665.47;605.67;;;;;;;;;;5051518;28;20439;-68
2023/08/08 06:51:11;;;;;;;83.15;75.97;;;;;;;;;;5045647;28;20590;-68
2023/08/08 06:53:38;;;;;;;1.75;1.50;;;;;;;;;;5043537;28;20506;-69
2023/08/08 06:56:06;;;;;;;816.35;743.20;;;;;;;;;;5036100;28;20434;-69
2023/08/08 06:58:33;;;;;;;554.80;508.58;;;;;;;;;;5040826;28;20438;-68
2023/08/08 07:01:00;;;;;;;917.53;826.17;;;;;;;;;;5051398;28;21069;-68
2023/08/08 07:03:27;;;;;;;1020.93;928.73;;;;;;;;;;5061270;28;20898;-68
2023/08/08 07:05:54;;;;;;;714.00;654.43;;;;;;;;;;5036008;28;20941;-68
2023/08/08 07:08:23;;;;;;;1018.10;924.45;;;;;;;;;;5069127;28;20515;-68
2023/08/08 07:10:51;;;;;;;753.15;687.28;;;;;;;;;;5053111;28;20454;-68
2023/08/08 07:13:20;;;;;;;612.60;559.55;;;;;;;;;;5044983;28;21027;-68
2023/08/08 07:15:47;;;;;;;744.72;682.15;;;;;;;;;;5052724;28;20432;-68
2023/08/08 07:18:15;;;;;;;381.10;346.73;;;;;;;;;;5054571;28;21039;-69
2023/08/08 07:20:45;;;;;;;771.03;705.95;;;;;;;;;;5051169;28;20431;-69
2023/08/08 07:23:19;;;;;;;529.70;480.90;;;;;;;;;;5057761;28;20428;-69
2023/08/08 07:25:46;;;;;;;882.85;807.20;;;;;;;;;;5050276;28;20435;-68
2023/08/08 07:28:17;;;;;;;987.85;900.17;;;;;;;;;;5059728;28;20430;-68
2023/08/08 07:30:44;;;;;;;1014.55;899.40;;;;;;;;;;5028693;28;20469;-69
2023/08/08 07:33:13;;;;;;;1033.68;870.95;;;;;;;;;;5049977;28;20427;-69
2023/08/08 07:35:41;;;;;;;1044.68;933.75;;;;;;;;;;5041811;28;20431;-69
2023/08/08 07:38:08;;;;;;;1043.85;928.20;;;;;;;;;;5042167;28;20836;-69
2023/08/08 07:40:36;;;;;;;1039.43;882.90;;;;;;;;;;5051293;28;20490;-69
2023/08/08 07:43:03;;;;;;;1028.25;872.53;;;;;;;;;;5038820;28;20434;-69
2023/08/08 07:45:31;;;;;;;1008.33;847.63;;;;;;;;;;5037894;28;20439;-69
2023/08/08 07:48:01;;;;;;;1012.83;845.72;;;;;;;;;;5045197;28;20797;-68
2023/08/08 07:50:28;;;;;;;1018.42;851.78;;;;;;;;;;5053294;28;20854;-68
2023/08/08 07:52:55;;;;;;;1006.03;834.25;;;;;;;;;;5042849;28;20512;-69
2023/08/08 07:55:22;;;;;;;1035.60;876.90;;;;;;;;;;5047886;28;20430;-71
2023/08/08 07:57:49;;;;;;;1015.80;898.88;;;;;;;;;;5061137;28;20516;-71
2023/08/08 08:00:18;;;;;;;1047.93;904.63;;;;;;;;;;5045125;28;20427;-68
2023/08/08 08:02:46;;;;;;;1033.57;886.47;;;;;;;;;;5040908;28;20993;-69
2023/08/08 08:05:14;;;;;;;1051.90;899.78;;;;;;;;;;5047365;28;20419;-69
2023/08/08 08:07:41;;;;;;;1017.17;858.17;;;;;;;;;;5047174;28;20537;-68
2023/08/08 08:10:10;;;;;;;1033.47;888.60;;;;;;;;;;5048159;28;20435;-69
2023/08/08 08:12:40;;;;;;;1027.18;871.55;;;;;;;;;;5056669;28;20433;-70
2023/08/08 08:15:08;;;;;;;1031.53;923.00;;;;;;;;;;5046225;28;20491;-70
2023/08/08 08:17:35;;;;;;;1037.90;885.47;;;;;;;;;;5045809;28;20491;-69
2023/08/08 08:20:05;;;;;;;972.05;799.72;;;;;;;;;;5038650;28;20430;-69
2023/08/08 08:22:33;;;;;;;993.58;820.85;;;;;;;;;;5035320;28;20432;-68
2023/08/08 08:25:09;;;;;;;1013.88;843.55;;;;;;;;;;5058617;28;20466;-69
2023/08/08 08:27:37;;;;;;;1002.87;828.37;;;;;;;;;;5064409;28;20824;-70
2023/08/08 08:30:05;;;;;;;1028.10;901.40;;;;;;;;;;5054108;28;20522;-70
2023/08/08 08:32:33;;;;;;;1030.80;865.00;;;;;;;;;;5057008;28;20460;-71
2023/08/08 08:35:07;;;;;;;1021.03;847.55;;;;;;;;;;5039290;28;20482;-72
2023/08/08 08:37:40;;;;;;;1017.42;846.45;;;;;;;;;;5047845;28;20913;-73
2023/08/08 08:40:08;;;;;;;1021.25;851.08;;;;;;;;;;5064175;28;20436;-71
2023/08/08 08:42:35;;;;;;;1004.03;826.65;;;;;;;;;;5058567;28;20491;-71
2023/08/08 08:45:04;;;;;;;1014.65;837.45;;;;;;;;;;5043312;28;20425;-71
2023/08/08 08:47:32;;;;;;;1038.15;878.33;;;;;;;;;;5050236;28;20485;-71
2023/08/08 08:50:02;;;;;;;1009.40;827.08;;;;;;;;;;5049146;28;21029;-72
2023/08/08 08:52:32;;;;;;;1034.22;864.63;;;;;;;;;;5060278;28;21126;-73
2023/08/08 08:55:00;;;;;;;1015.40;845.47;;;;;;;;;;5050893;28;20450;-72
2023/08/08 08:57:29;;;;;;;1021.27;846.77;;;;;;;;;;5056338;28;20427;-71
2023/08/08 08:59:59;;;;;;;1041.43;877.22;;;;;;;;;;5053950;28;20845;-72
2023/08/08 09:02:26;;;;;;;1009.10;898.92;;;;;;;;;;5047259;28;20912;-72
2023/08/08 09:04:54;;;;;;;1027.53;928.88;;;;;;;;;;5046728;28;20434;-70
2023/08/08 09:07:25;;;;;;;1036.45;925.33;;;;;;;;;;5042927;28;20423;-72
2023/08/08 09:09:52;;;;;;;1046.72;900.22;;;;;;;;;;5037101;28;20460;-71
2023/08/08 09:12:20;;;;;;;1016.42;894.22;;;;;;;;;;5056802;28;20488;-71
2023/08/08 09:14:48;;;;;;;1033.72;910.88;;;;;;;;;;5053961;28;20514;-73
2023/08/08 09:17:16;;;;;;;1025.57;861.72;;;;;;;;;;5044060;28;20500;-74
2023/08/08 09:19:48;;;;;;;960.17;783.80;;;;;;;;;;5036041;28;20523;-73
2023/08/08 09:22:15;;;;;;;1019.95;850.03;;;;;;;;;;5048088;28;20465;-71
2023/08/08 09:24:43;;;;;;;981.08;803.05;;;;;;;;;;5061585;28;20795;-74
2023/08/08 09:27:10;;;;;;;1027.80;858.17;;;;;;;;;;5059782;28;20431;-70
2023/08/08 09:29:37;;;;;;;1046.55;886.60;;;;;;;;;;5030461;28;20638;-70
2023/08/08 09:32:05;;;;;;;1016.92;890.42;;;;;;;;;;5047371;28;20432;-72
2023/08/08 09:34:35;;;;;;;1039.78;896.55;;;;;;;;;;5041069;28;20894;-74
2023/08/08 09:37:03;;;;;;;1000.92;862.25;;;;;;;;;;5066657;28;20423;-72
2023/08/08 09:39:30;;;;;;;1020.78;864.33;;;;;;;;;;5048469;28;20783;-73
2023/08/08 09:41:57;;;;;;;1035.55;888.60;;;;;;;;;;5071081;28;20518;-75
2023/08/08 09:44:26;;;;;;;1005.95;856.70;;;;;;;;;;5045259;28;20430;-73
2023/08/08 09:46:53;;;;;;;1033.25;889.63;;;;;;;;;;5063216;28;20435;-74
2023/08/08 09:49:21;;;;;;;1034.57;884.13;;;;;;;;;;5043028;28;20433;-72
2023/08/08 09:51:52;;;;;;;1047.10;896.13;;;;;;;;;;5058294;28;20425;-74
2023/08/08 09:54:20;;;;;;;1036.23;879.57;;;;;;;;;;5056070;28;20490;-76
2023/08/08 09:56:48;;;;;;;1040.25;926.08;;;;;;;;;;5054716;28;20508;-72
2023/08/08 09:59:18;;;;;;;1043.07;919.08;;;;;;;;;;5050357;28;20508;-74
2023/08/08 10:01:46;;;;;;;1004.40;844.30;;;;;;;;;;5059843;28;20513;-74
2023/08/08 10:04:17;;;;;;;1048.97;938.00;;;;;;;;;;5048538;28;20500;-74
2023/08/08 10:06:45;;;;;;;1030.60;892.70;;;;;;;;;;5061773;28;20963;-76
2023/08/08 10:09:12;;;;;;;1032.55;905.55;;;;;;;;;;5049870;28;20426;-74
2023/08/08 10:11:41;;;;;;;1069.43;957.10;;;;;;;;;;5033955;28;20433;-75
2023/08/08 10:14:13;;;;;;;1039.28;901.92;;;;;;;;;;5058211;28;20435;-72
2023/08/08 10:16:43;;;;;;;1004.20;860.53;;;;;;;;;;5047959;28;20466;-74
2023/08/08 10:19:12;;;;;;;1032.80;892.83;;;;;;;;;;5050785;28;20441;-76
2023/08/08 10:21:42;;;;;;;1089.22;973.40;;;;;;;;;;5055339;28;20560;-76
2023/08/08 10:24:13;;;;;;;1040.35;905.97;;;;;;;;;;5046906;28;20773;-77
2023/08/08 10:27:00;;;;;;;1097.63;989.38;;;;;;;;;;5034607;28;20514;-75
2023/08/08 10:29:28;;;;;;;1061.45;975.33;;;;;;;;;;5042320;28;20445;-74
2023/08/08 10:32:03;;;;;;;1079.77;961.67;;;;;;;;;;5035225;28;20427;-74
2023/08/08 10:34:38;;;;;;;1100.13;983.75;;;;;;;;;;5062553;28;20563;-75
2023/08/08 10:37:09;;;;;;;1111.75;990.63;;;;;;;;;;5043089;28;20433;-77
2023/08/08 10:39:36;;;;;;;1047.55;949.90;;;;;;;;;;5044890;28;20439;-73
2023/08/08 10:42:04;;;;;;;306.88;280.85;;;;;;;;;;5047931;28;20577;-79
2023/08/08 10:44:32;;;;;;;521.60;476.10;;;;;;;;;;5031008;28;20430;-79
2023/08/08 10:47:00;;;;;;;780.10;714.72;;;;;;;;;;5033892;28;20905;-74
2023/08/08 10:49:27;;;;;;;300.80;275.02;;;;;;;;;;5031248;28;20440;-78
2023/08/08 10:52:02;;;;;;;1086.45;969.30;;;;;;;;;;5035593;28;20511;-74
2023/08/08 10:54:32;;;;;;;1099.38;978.50;;;;;;;;;;5039176;28;20429;-76
2023/08/08 10:56:59;;;;;;;1062.87;942.43;;;;;;;;;;5056733;28;21102;-77
2023/08/08 10:59:29;;;;;;;1028.45;897.17;;;;;;;;;;5040140;28;20429;-81
2023/08/08 11:01:57;;;;;;;1080.15;960.83;;;;;;;;;;5043355;28;20433;-74
2023/08/08 11:04:26;;;;;;;1032.50;891.20;;;;;;;;;;5038632;28;20432;-78
2023/08/08 11:06:54;;;;;;;1017.30;871.08;;;;;;;;;;5032518;28;20980;-75
2023/08/08 11:09:22;;;;;;;1028.13;880.80;;;;;;;;;;5032487;28;20500;-80
2023/08/08 11:11:49;;;;;;;1065.95;930.47;;;;;;;;;;5039402;28;20462;-77
2023/08/08 11:14:17;;;;;;;1039.68;893.85;;;;;;;;;;5028108;28;20913;-76
2023/08/08 11:16:45;;;;;;;1033.63;887.67;;;;;;;;;;5036605;28;20835;-78
2023/08/08 11:19:13;;;;;;;1059.65;929.53;;;;;;;;;;5042571;28;20446;-78
2023/08/08 11:21:41;;;;;;;1028.45;879.08;;;;;;;;;;5052704;28;20499;-79
2023/08/08 11:24:08;;;;;;;1037.90;896.33;;;;;;;;;;5040249;28;20437;-82
2023/08/08 11:26:36;;;;;;;1030.90;887.10;;;;;;;;;;5036824;28;20514;-75
2023/08/08 11:29:05;;;;;;;1074.50;954.38;;;;;;;;;;5040527;28;20959;-80
2023/08/08 11:31:35;;;;;;;1048.53;918.28;;;;;;;;;;5045711;28;20520;-77
2023/08/08 11:34:10;;;;;;;1062.45;939.50;;;;;;;;;;5045891;28;20923;-80
2023/08/08 11:36:37;;;;;;;1051.50;926.35;;;;;;;;;;5038845;28;20471;-84
2023/08/08 11:39:08;;;;;;;1088.70;977.03;;;;;;;;;;5046805;28;20849;-77
2023/08/08 11:41:36;;;;;;;1091.72;990.83;;;;;;;;;;5044041;28;20514;-87
2023/08/08 11:44:09;;;;;;;1087.03;977.35;;;;;;;;;;5037970;28;20449;-78
2023/08/08 11:46:44;;;;;;;1064.68;949.75;;;;;;;;;;5043770;28;20433;-80
2023/08/08 11:49:13;;;;;;;1096.13;983.50;;;;;;;;;;5042366;28;20433;-82
2023/08/08 11:51:43;;;;;;;1061.93;957.43;;;;;;;;;;5038274;28;20431;-77
2023/08/08 11:54:11;;;;;;;1093.43;981.13;;;;;;;;;;5044171;28;20437;-80
2023/08/08 11:56:38;;;;;;;792.17;724.05;;;;;;;;;;5047800;28;20504;-84
2023/08/08 11:59:06;;;;;;;1073.38;971.28;;;;;;;;;;5044971;28;20491;-81
2023/08/08 12:01:34;;;;;;;950.85;874.38;;;;;;;;;;5045461;28;20929;-82
2023/08/08 12:04:10;;;;;;;1069.53;954.65;;;;;;;;;;5045169;28;20431;-81
2023/08/08 12:06:43;;;;;;;1034.40;895.65;;;;;;;;;;5047426;28;20741;-82
2023/08/08 12:09:14;;;;;;;1028.38;886.88;;;;;;;;;;5048366;28;20435;-81
2023/08/08 12:11:42;;;;;;;1005.47;855.15;;;;;;;;;;5070392;28;20460;-77
2023/08/08 12:14:14;;;;;;;1017.72;873.83;;;;;;;;;;5049545;28;20964;-82
2023/08/08 12:16:43;;;;;;;1065.07;938.37;;;;;;;;;;5047615;28;20909;-78
2023/08/08 12:19:11;;;;;;;1057.33;928.57;;;;;;;;;;5033981;28;20465;-81
2023/08/08 12:21:38;;;;;;;1076.22;957.00;;;;;;;;;;5053677;28;20435;-78
2023/08/08 12:24:06;;;;;;;1063.25;940.30;;;;;;;;;;5055886;28;20436;-80
2023/08/08 12:26:33;;;;;;;1100.15;983.30;;;;;;;;;;5040015;28;20425;-85
2023/08/08 12:29:00;;;;;;;1113.20;995.08;;;;;;;;;;5051541;28;20572;-86
2023/08/08 12:31:28;;;;;;;1108.47;988.42;;;;;;;;;;5037388;28;20442;-84
2023/08/08 12:33:55;;;;;;;1099.57;989.72;;;;;;;;;;5059461;28;20431;-80
2023/08/08 12:36:22;;;;;;;1096.03;982.38;;;;;;;;;;5040834;28;20458;-83
2023/08/08 12:38:49;;;;;;;1075.85;970.13;;;;;;;;;;5049350;28;20885;-80
2023/08/08 12:41:17;;;;;;;1068.63;938.00;;;;;;;;;;5036061;28;20433;-82
2023/08/08 12:43:50;;;;;;;1076.57;957.47;;;;;;;;;;5047175;28;20518;-80
2023/08/08 12:46:17;;;;;;;1074.28;947.05;;;;;;;;;;5042458;28;20432;-80
2023/08/08 12:48:44;;;;;;;1078.35;968.95;;;;;;;;;;5039687;28;20495;-82
2023/08/08 12:51:21;;;;;;;1059.72;950.13;;;;;;;;;;5039529;28;20546;-83
2023/08/08 12:53:49;;;;;;;1059.40;954.35;;;;;;;;;;5035243;28;20475;-82
2023/08/08 12:56:17;;;;;;;1064.60;957.67;;;;;;;;;;5037628;28;20490;-85
2023/08/08 12:58:44;;;;;;;1052.17;954.23;;;;;;;;;;5047650;28;20433;-83
2023/08/08 13:01:11;;;;;;;1047.32;941.40;;;;;;;;;;5058034;28;20435;-83
2023/08/08 13:03:39;;;;;;;1055.65;951.80;;;;;;;;;;5046056;28;20501;-83
2023/08/08 13:06:12;;;;;;;1051.67;927.40;;;;;;;;;;5030926;28;20789;-84
2023/08/08 13:08:40;;;;;;;1001.25;913.50;;;;;;;;;;5037461;28;20439;-83
2023/08/08 13:11:08;;;;;;;1021.20;922.13;;;;;;;;;;5033705;28;20514;-81
2023/08/08 13:13:35;;;;;;;1027.03;918.27;;;;;;;;;;5053477;28;20854;-77
2023/08/08 13:16:03;;;;;;;1031.35;919.42;;;;;;;;;;5038507;28;20529;-82
2023/08/08 13:18:30;;;;;;;1053.18;945.17;;;;;;;;;;5049565;28;20838;-77
2023/08/08 13:21:00;;;;;;;1068.07;957.20;;;;;;;;;;5051325;28;20482;-79
2023/08/08 13:23:30;;;;;;;1064.45;950.55;;;;;;;;;;5044013;28;20442;-81
2023/08/08 13:25:57;;;;;;;1054.00;937.10;;;;;;;;;;5045529;28;20440;-82
2023/08/08 13:28:26;;;;;;;1051.80;927.40;;;;;;;;;;5057282;28;20426;-82
2023/08/08 13:30:53;;;;;;;1033.43;875.77;;;;;;;;;;5038963;28;21089;-82
2023/08/08 13:33:20;;;;;;;1039.53;884.35;;;;;;;;;;5052243;28;20493;-80
2023/08/08 13:35:48;;;;;;;1015.95;925.75;;;;;;;;;;5041862;28;20905;-78
2023/08/08 13:38:15;;;;;;;1056.95;945.58;;;;;;;;;;5058792;28;20427;-79
2023/08/08 13:40:42;;;;;;;423.63;388.55;;;;;;;;;;5041229;28;20466;-80
2023/08/08 13:43:12;;;;;;;557.05;509.23;;;;;;;;;;5042220;28;20433;-80
2023/08/08 13:45:42;;;;;;;1064.63;958.05;;;;;;;;;;5041605;28;20521;-78
2023/08/08 13:48:10;;;;;;;1065.38;961.50;;;;;;;;;;5045542;28;20892;-77
2023/08/08 13:50:37;;;;;;;1050.40;962.83;;;;;;;;;;5051545;28;20427;-81
2023/08/08 13:53:04;;;;;;;1081.18;991.05;;;;;;;;;;5061410;28;20903;-81
2023/08/08 13:55:39;;;;;;;1084.13;990.72;;;;;;;;;;5040547;28;20438;-79